sensor_id;sensor_type;location;lat;lon;timestamp;P1;durP1;ratioP1;P2;durP2;ratioP2
58528;SDS011;44322;52.968;5.816;2023-04-06T00:01:07;11.18;;;7.88;;
58528;SDS011;44322;52.968;5.816;2023-04-06T00:03:33;9.48;;;7.05;;
58528;SDS011;44322;52.968;5.816;2023-04-06T00:05:59;8.38;;;6.95;;
58528;SDS011;44322;52.968;5.816;2023-04-06T00:08:25;10.77;;;7.35;;
58528;SDS011;44322;52.968;5.816;2023-04-06T00:10:52;10.20;;;7.20;;
58528;SDS011;44322;52.968;5.816;2023-04-06T00:13:17;8.95;;;7.03;;
58528;SDS011;44322;52.968;5.816;2023-04-06T00:15:43;11.10;;;7.47;;
58528;SDS011;44322;52.968;5.816;2023-04-06T00:18:09;10.95;;;7.82;;
58528;SDS011;44322;52.968;5.816;2023-04-06T00:20:35;9.20;;;6.80;;
58528;SDS011;44322;52.968;5.816;2023-04-06T00:23:01;8.20;;;6.80;;
58528;SDS011;44322;52.968;5.816;2023-04-06T00:25:27;9.93;;;7.15;;
58528;SDS011;44322;52.968;5.816;2023-04-06T00:27:53;8.30;;;7.30;;
58528;SDS011;44322;52.968;5.816;2023-04-06T00:30:19;10.05;;;7.35;;
58528;SDS011;44322;52.968;5.816;2023-04-06T00:32:45;10.13;;;7.65;;
58528;SDS011;44322;52.968;5.816;2023-04-06T00:35:11;12.20;;;7.93;;
58528;SDS011;44322;52.968;5.816;2023-04-06T00:37:36;8.55;;;7.18;;
58528;SDS011;44322;52.968;5.816;2023-04-06T00:40:02;10.93;;;8.05;;
58528;SDS011;44322;52.968;5.816;2023-04-06T00:42:28;9.48;;;7.28;;
58528;SDS011;44322;52.968;5.816;2023-04-06T00:44:55;11.82;;;8.43;;
58528;SDS011;44322;52.968;5.816;2023-04-06T00:47:22;12.63;;;9.05;;
58528;SDS011;44322;52.968;5.816;2023-04-06T00:49:48;13.55;;;8.93;;
58528;SDS011;44322;52.968;5.816;2023-04-06T00:52:14;12.18;;;8.55;;
58528;SDS011;44322;52.968;5.816;2023-04-06T00:54:44;9.60;;;7.90;;
58528;SDS011;44322;52.968;5.816;2023-04-06T00:57:11;11.65;;;8.55;;
58528;SDS011;44322;52.968;5.816;2023-04-06T00:59:38;13.77;;;7.63;;
58528;SDS011;44322;52.968;5.816;2023-04-06T01:02:08;11.60;;;8.60;;
58528;SDS011;44322;52.968;5.816;2023-04-06T01:04:40;9.60;;;7.68;;
58528;SDS011;44322;52.968;5.816;2023-04-06T01:07:11;10.50;;;8.60;;
58528;SDS011;44322;52.968;5.816;2023-04-06T01:09:45;11.13;;;8.15;;
58528;SDS011;44322;52.968;5.816;2023-04-06T01:12:17;11.23;;;8.18;;
58528;SDS011;44322;52.968;5.816;2023-04-06T01:14:44;10.82;;;7.93;;
58528;SDS011;44322;52.968;5.816;2023-04-06T01:17:09;10.57;;;8.13;;
58528;SDS011;44322;52.968;5.816;2023-04-06T01:19:36;12.88;;;8.73;;
58528;SDS011;44322;52.968;5.816;2023-04-06T01:22:02;9.43;;;8.23;;
58528;SDS011;44322;52.968;5.816;2023-04-06T01:24:31;9.38;;;7.55;;
58528;SDS011;44322;52.968;5.816;2023-04-06T01:27:09;10.18;;;7.95;;
58528;SDS011;44322;52.968;5.816;2023-04-06T01:29:50;11.52;;;7.88;;
58528;SDS011;44322;52.968;5.816;2023-04-06T01:32:30;9.05;;;7.85;;
58528;SDS011;44322;52.968;5.816;2023-04-06T01:34:56;11.88;;;8.70;;
58528;SDS011;44322;52.968;5.816;2023-04-06T01:37:22;9.32;;;7.40;;
58528;SDS011;44322;52.968;5.816;2023-04-06T01:39:51;11.23;;;8.27;;
58528;SDS011;44322;52.968;5.816;2023-04-06T01:42:26;9.98;;;7.82;;
58528;SDS011;44322;52.968;5.816;2023-04-06T01:44:52;11.18;;;8.43;;
58528;SDS011;44322;52.968;5.816;2023-04-06T01:47:17;10.43;;;8.32;;
58528;SDS011;44322;52.968;5.816;2023-04-06T01:49:43;9.70;;;7.97;;
58528;SDS011;44322;52.968;5.816;2023-04-06T01:52:09;9.35;;;8.10;;
58528;SDS011;44322;52.968;5.816;2023-04-06T01:54:39;14.93;;;8.32;;
58528;SDS011;44322;52.968;5.816;2023-04-06T01:57:19;10.50;;;8.38;;
58528;SDS011;44322;52.968;5.816;2023-04-06T01:59:51;10.98;;;8.45;;
58528;SDS011;44322;52.968;5.816;2023-04-06T02:02:25;12.50;;;8.52;;
58528;SDS011;44322;52.968;5.816;2023-04-06T02:04:59;13.38;;;8.18;;
58528;SDS011;44322;52.968;5.816;2023-04-06T02:07:25;11.15;;;7.82;;
58528;SDS011;44322;52.968;5.816;2023-04-06T02:09:53;12.38;;;9.20;;
58528;SDS011;44322;52.968;5.816;2023-04-06T02:12:24;12.02;;;8.70;;
58528;SDS011;44322;52.968;5.816;2023-04-06T02:14:51;13.25;;;9.00;;
58528;SDS011;44322;52.968;5.816;2023-04-06T02:17:17;10.70;;;7.68;;
58528;SDS011;44322;52.968;5.816;2023-04-06T02:19:43;10.43;;;8.52;;
58528;SDS011;44322;52.968;5.816;2023-04-06T02:22:09;10.68;;;8.48;;
58528;SDS011;44322;52.968;5.816;2023-04-06T02:24:34;11.65;;;8.98;;
58528;SDS011;44322;52.968;5.816;2023-04-06T02:27:00;11.00;;;8.43;;
58528;SDS011;44322;52.968;5.816;2023-04-06T02:29:26;12.45;;;8.63;;
58528;SDS011;44322;52.968;5.816;2023-04-06T02:31:52;11.10;;;8.65;;
58528;SDS011;44322;52.968;5.816;2023-04-06T02:34:19;12.70;;;9.18;;
58528;SDS011;44322;52.968;5.816;2023-04-06T02:36:49;12.27;;;8.23;;
58528;SDS011;44322;52.968;5.816;2023-04-06T02:39:14;10.25;;;8.55;;
58528;SDS011;44322;52.968;5.816;2023-04-06T02:41:40;12.00;;;8.77;;
58528;SDS011;44322;52.968;5.816;2023-04-06T02:44:07;10.68;;;8.95;;
58528;SDS011;44322;52.968;5.816;2023-04-06T02:46:38;12.43;;;9.20;;
58528;SDS011;44322;52.968;5.816;2023-04-06T02:49:04;10.40;;;9.02;;
58528;SDS011;44322;52.968;5.816;2023-04-06T02:54:10;12.02;;;9.20;;
58528;SDS011;44322;52.968;5.816;2023-04-06T02:56:36;11.20;;;8.60;;
58528;SDS011;44322;52.968;5.816;2023-04-06T02:59:01;13.65;;;9.35;;
58528;SDS011;44322;52.968;5.816;2023-04-06T03:01:30;13.40;;;9.48;;
58528;SDS011;44322;52.968;5.816;2023-04-06T03:04:00;14.20;;;9.48;;
58528;SDS011;44322;52.968;5.816;2023-04-06T03:06:27;10.00;;;7.82;;
58528;SDS011;44322;52.968;5.816;2023-04-06T03:08:58;12.52;;;10.07;;
58528;SDS011;44322;52.968;5.816;2023-04-06T03:11:23;13.77;;;8.68;;
58528;SDS011;44322;52.968;5.816;2023-04-06T03:13:51;13.00;;;9.75;;
58528;SDS011;44322;52.968;5.816;2023-04-06T03:16:17;14.20;;;9.80;;
58528;SDS011;44322;52.968;5.816;2023-04-06T03:18:43;11.93;;;9.40;;
58528;SDS011;44322;52.968;5.816;2023-04-06T03:21:12;13.25;;;9.43;;
58528;SDS011;44322;52.968;5.816;2023-04-06T03:23:45;12.60;;;9.80;;
58528;SDS011;44322;52.968;5.816;2023-04-06T03:26:11;13.48;;;10.30;;
58528;SDS011;44322;52.968;5.816;2023-04-06T03:28:37;14.88;;;10.57;;
58528;SDS011;44322;52.968;5.816;2023-04-06T03:31:04;15.82;;;10.82;;
58528;SDS011;44322;52.968;5.816;2023-04-06T03:33:44;14.57;;;10.10;;
58528;SDS011;44322;52.968;5.816;2023-04-06T03:36:16;13.55;;;9.88;;
58528;SDS011;44322;52.968;5.816;2023-04-06T03:38:43;14.65;;;9.63;;
58528;SDS011;44322;52.968;5.816;2023-04-06T03:41:11;15.32;;;10.60;;
58528;SDS011;44322;52.968;5.816;2023-04-06T03:43:39;16.02;;;10.98;;
58528;SDS011;44322;52.968;5.816;2023-04-06T03:46:05;14.60;;;9.88;;
58528;SDS011;44322;52.968;5.816;2023-04-06T03:48:31;13.57;;;10.35;;
58528;SDS011;44322;52.968;5.816;2023-04-06T03:51:01;14.02;;;10.77;;
58528;SDS011;44322;52.968;5.816;2023-04-06T03:53:27;14.88;;;10.73;;
58528;SDS011;44322;52.968;5.816;2023-04-06T03:55:53;12.75;;;10.00;;
58528;SDS011;44322;52.968;5.816;2023-04-06T03:58:19;15.55;;;10.75;;
58528;SDS011;44322;52.968;5.816;2023-04-06T04:00:45;14.85;;;10.40;;
58528;SDS011;44322;52.968;5.816;2023-04-06T04:03:11;15.43;;;10.82;;
58528;SDS011;44322;52.968;5.816;2023-04-06T04:05:36;15.07;;;10.63;;
58528;SDS011;44322;52.968;5.816;2023-04-06T04:08:02;17.67;;;11.02;;
58528;SDS011;44322;52.968;5.816;2023-04-06T04:10:28;16.60;;;11.07;;
58528;SDS011;44322;52.968;5.816;2023-04-06T04:12:53;15.13;;;10.93;;
58528;SDS011;44322;52.968;5.816;2023-04-06T04:15:19;18.88;;;11.85;;
58528;SDS011;44322;52.968;5.816;2023-04-06T04:17:46;15.95;;;11.02;;
58528;SDS011;44322;52.968;5.816;2023-04-06T04:20:14;14.65;;;10.25;;
58528;SDS011;44322;52.968;5.816;2023-04-06T04:22:41;16.40;;;11.15;;
58528;SDS011;44322;52.968;5.816;2023-04-06T04:25:08;15.40;;;10.85;;
58528;SDS011;44322;52.968;5.816;2023-04-06T04:27:39;18.80;;;11.40;;
58528;SDS011;44322;52.968;5.816;2023-04-06T04:30:06;21.23;;;11.52;;
58528;SDS011;44322;52.968;5.816;2023-04-06T04:32:32;14.93;;;10.33;;
58528;SDS011;44322;52.968;5.816;2023-04-06T04:35:00;14.93;;;11.02;;
58528;SDS011;44322;52.968;5.816;2023-04-06T04:37:34;15.65;;;11.50;;
58528;SDS011;44322;52.968;5.816;2023-04-06T04:40:01;17.20;;;11.80;;
58528;SDS011;44322;52.968;5.816;2023-04-06T04:42:31;15.45;;;11.07;;
58528;SDS011;44322;52.968;5.816;2023-04-06T04:44:58;16.13;;;10.98;;
58528;SDS011;44322;52.968;5.816;2023-04-06T04:47:33;16.77;;;10.55;;
58528;SDS011;44322;52.968;5.816;2023-04-06T04:49:59;17.58;;;10.85;;
58528;SDS011;44322;52.968;5.816;2023-04-06T04:52:25;17.77;;;11.40;;
58528;SDS011;44322;52.968;5.816;2023-04-06T04:54:59;15.52;;;11.13;;
58528;SDS011;44322;52.968;5.816;2023-04-06T04:57:27;16.85;;;10.70;;
58528;SDS011;44322;52.968;5.816;2023-04-06T04:59:53;16.40;;;11.25;;
58528;SDS011;44322;52.968;5.816;2023-04-06T05:02:18;15.95;;;11.13;;
58528;SDS011;44322;52.968;5.816;2023-04-06T05:04:53;15.60;;;11.43;;
58528;SDS011;44322;52.968;5.816;2023-04-06T05:07:23;16.40;;;10.63;;
58528;SDS011;44322;52.968;5.816;2023-04-06T05:09:50;20.03;;;11.53;;
58528;SDS011;44322;52.968;5.816;2023-04-06T05:12:18;15.75;;;11.73;;
58528;SDS011;44322;52.968;5.816;2023-04-06T05:14:57;18.92;;;11.55;;
58528;SDS011;44322;52.968;5.816;2023-04-06T05:17:23;16.83;;;11.75;;
58528;SDS011;44322;52.968;5.816;2023-04-06T05:19:49;14.52;;;11.48;;
58528;SDS011;44322;52.968;5.816;2023-04-06T05:22:21;15.27;;;10.90;;
58528;SDS011;44322;52.968;5.816;2023-04-06T05:24:56;21.27;;;12.10;;
58528;SDS011;44322;52.968;5.816;2023-04-06T05:27:21;20.35;;;12.02;;
58528;SDS011;44322;52.968;5.816;2023-04-06T05:29:47;19.65;;;11.32;;
58528;SDS011;44322;52.968;5.816;2023-04-06T05:32:14;26.42;;;12.65;;
58528;SDS011;44322;52.968;5.816;2023-04-06T05:34:40;21.42;;;12.50;;
58528;SDS011;44322;52.968;5.816;2023-04-06T05:37:06;16.88;;;11.60;;
58528;SDS011;44322;52.968;5.816;2023-04-06T05:39:32;15.65;;;11.55;;
58528;SDS011;44322;52.968;5.816;2023-04-06T05:42:01;18.00;;;11.57;;
58528;SDS011;44322;52.968;5.816;2023-04-06T05:44:38;16.80;;;12.23;;
58528;SDS011;44322;52.968;5.816;2023-04-06T05:47:14;17.25;;;11.65;;
58528;SDS011;44322;52.968;5.816;2023-04-06T05:49:41;16.98;;;11.40;;
58528;SDS011;44322;52.968;5.816;2023-04-06T05:52:12;17.00;;;11.93;;
58528;SDS011;44322;52.968;5.816;2023-04-06T05:54:41;18.20;;;11.95;;
58528;SDS011;44322;52.968;5.816;2023-04-06T05:57:07;17.45;;;12.15;;
58528;SDS011;44322;52.968;5.816;2023-04-06T05:59:32;15.65;;;11.65;;
58528;SDS011;44322;52.968;5.816;2023-04-06T06:01:58;19.08;;;11.57;;
58528;SDS011;44322;52.968;5.816;2023-04-06T06:04:28;15.60;;;11.82;;
58528;SDS011;44322;52.968;5.816;2023-04-06T06:06:56;16.20;;;11.13;;
58528;SDS011;44322;52.968;5.816;2023-04-06T06:09:34;18.67;;;11.93;;
58528;SDS011;44322;52.968;5.816;2023-04-06T06:12:26;18.35;;;11.02;;
58528;SDS011;44322;52.968;5.816;2023-04-06T06:14:51;18.70;;;12.07;;
58528;SDS011;44322;52.968;5.816;2023-04-06T06:17:18;15.80;;;11.07;;
58528;SDS011;44322;52.968;5.816;2023-04-06T06:19:47;20.25;;;12.13;;
58528;SDS011;44322;52.968;5.816;2023-04-06T06:22:17;18.67;;;12.27;;
58528;SDS011;44322;52.968;5.816;2023-04-06T06:24:48;18.30;;;11.95;;
58528;SDS011;44322;52.968;5.816;2023-04-06T06:27:20;14.45;;;10.75;;
58528;SDS011;44322;52.968;5.816;2023-04-06T06:29:46;18.10;;;11.68;;
58528;SDS011;44322;52.968;5.816;2023-04-06T06:32:13;17.67;;;12.77;;
58528;SDS011;44322;52.968;5.816;2023-04-06T06:34:40;18.38;;;12.10;;
58528;SDS011;44322;52.968;5.816;2023-04-06T06:37:09;16.67;;;12.15;;
58528;SDS011;44322;52.968;5.816;2023-04-06T06:39:36;17.23;;;12.20;;
58528;SDS011;44322;52.968;5.816;2023-04-06T06:42:02;18.48;;;10.93;;
58528;SDS011;44322;52.968;5.816;2023-04-06T06:44:46;21.38;;;12.05;;
58528;SDS011;44322;52.968;5.816;2023-04-06T06:47:12;17.73;;;12.82;;
58528;SDS011;44322;52.968;5.816;2023-04-06T06:49:37;15.80;;;12.02;;
58528;SDS011;44322;52.968;5.816;2023-04-06T06:52:03;18.90;;;11.10;;
58528;SDS011;44322;52.968;5.816;2023-04-06T06:54:29;21.70;;;11.63;;
58528;SDS011;44322;52.968;5.816;2023-04-06T06:56:55;18.33;;;12.40;;
58528;SDS011;44322;52.968;5.816;2023-04-06T06:59:20;17.45;;;11.55;;
58528;SDS011;44322;52.968;5.816;2023-04-06T07:01:46;25.25;;;13.02;;
58528;SDS011;44322;52.968;5.816;2023-04-06T07:04:12;16.80;;;12.02;;
58528;SDS011;44322;52.968;5.816;2023-04-06T07:06:37;16.52;;;11.55;;
58528;SDS011;44322;52.968;5.816;2023-04-06T07:09:03;18.85;;;12.75;;
58528;SDS011;44322;52.968;5.816;2023-04-06T07:11:29;17.80;;;12.25;;
58528;SDS011;44322;52.968;5.816;2023-04-06T07:13:55;20.55;;;12.23;;
58528;SDS011;44322;52.968;5.816;2023-04-06T07:16:21;19.80;;;11.68;;
58528;SDS011;44322;52.968;5.816;2023-04-06T07:18:47;17.02;;;12.05;;
58528;SDS011;44322;52.968;5.816;2023-04-06T07:21:13;19.05;;;12.30;;
58528;SDS011;44322;52.968;5.816;2023-04-06T07:23:39;18.35;;;12.52;;
58528;SDS011;44322;52.968;5.816;2023-04-06T07:26:05;17.83;;;12.00;;
58528;SDS011;44322;52.968;5.816;2023-04-06T07:28:31;20.42;;;12.15;;
58528;SDS011;44322;52.968;5.816;2023-04-06T07:31:23;20.73;;;12.52;;
58528;SDS011;44322;52.968;5.816;2023-04-06T07:33:48;18.35;;;12.70;;
58528;SDS011;44322;52.968;5.816;2023-04-06T07:36:15;18.50;;;12.38;;
58528;SDS011;44322;52.968;5.816;2023-04-06T07:38:43;17.80;;;12.57;;
58528;SDS011;44322;52.968;5.816;2023-04-06T07:41:08;19.70;;;13.00;;
58528;SDS011;44322;52.968;5.816;2023-04-06T07:43:34;19.05;;;13.32;;
58528;SDS011;44322;52.968;5.816;2023-04-06T07:46:00;19.35;;;12.73;;
58528;SDS011;44322;52.968;5.816;2023-04-06T07:48:26;21.02;;;13.55;;
58528;SDS011;44322;52.968;5.816;2023-04-06T07:50:51;21.08;;;13.75;;
58528;SDS011;44322;52.968;5.816;2023-04-06T07:53:19;24.42;;;13.95;;
58528;SDS011;44322;52.968;5.816;2023-04-06T07:55:45;24.33;;;14.98;;
58528;SDS011;44322;52.968;5.816;2023-04-06T07:58:11;24.23;;;14.27;;
58528;SDS011;44322;52.968;5.816;2023-04-06T08:00:37;24.25;;;14.68;;
58528;SDS011;44322;52.968;5.816;2023-04-06T08:03:02;21.63;;;14.15;;
58528;SDS011;44322;52.968;5.816;2023-04-06T08:05:28;26.05;;;14.60;;
58528;SDS011;44322;52.968;5.816;2023-04-06T08:07:53;19.95;;;14.32;;
58528;SDS011;44322;52.968;5.816;2023-04-06T08:10:19;23.63;;;15.20;;
58528;SDS011;44322;52.968;5.816;2023-04-06T08:12:45;29.70;;;16.42;;
58528;SDS011;44322;52.968;5.816;2023-04-06T08:15:10;22.85;;;15.52;;
58528;SDS011;44322;52.968;5.816;2023-04-06T08:17:36;26.98;;;16.55;;
58528;SDS011;44322;52.968;5.816;2023-04-06T08:20:02;28.67;;;17.27;;
58528;SDS011;44322;52.968;5.816;2023-04-06T08:22:28;27.42;;;17.38;;
58528;SDS011;44322;52.968;5.816;2023-04-06T08:24:54;31.33;;;18.38;;
58528;SDS011;44322;52.968;5.816;2023-04-06T08:27:22;32.58;;;18.42;;
58528;SDS011;44322;52.968;5.816;2023-04-06T08:29:49;29.00;;;18.90;;
58528;SDS011;44322;52.968;5.816;2023-04-06T08:32:15;36.07;;;20.20;;
58528;SDS011;44322;52.968;5.816;2023-04-06T08:34:41;36.05;;;20.98;;
58528;SDS011;44322;52.968;5.816;2023-04-06T08:37:07;35.72;;;20.55;;
58528;SDS011;44322;52.968;5.816;2023-04-06T08:39:32;34.28;;;20.73;;
58528;SDS011;44322;52.968;5.816;2023-04-06T08:41:59;35.40;;;20.30;;
58528;SDS011;44322;52.968;5.816;2023-04-06T08:44:26;36.10;;;21.02;;
58528;SDS011;44322;52.968;5.816;2023-04-06T08:46:52;32.03;;;19.85;;
58528;SDS011;44322;52.968;5.816;2023-04-06T08:49:18;30.92;;;18.92;;
58528;SDS011;44322;52.968;5.816;2023-04-06T08:51:44;31.23;;;17.85;;
58528;SDS011;44322;52.968;5.816;2023-04-06T08:54:09;34.65;;;18.08;;
58528;SDS011;44322;52.968;5.816;2023-04-06T08:56:37;28.52;;;17.55;;
58528;SDS011;44322;52.968;5.816;2023-04-06T08:59:03;30.63;;;17.08;;
58528;SDS011;44322;52.968;5.816;2023-04-06T09:01:30;28.95;;;17.65;;
58528;SDS011;44322;52.968;5.816;2023-04-06T09:03:57;26.20;;;16.33;;
58528;SDS011;44322;52.968;5.816;2023-04-06T09:06:24;26.13;;;15.85;;
58528;SDS011;44322;52.968;5.816;2023-04-06T09:08:51;25.70;;;16.25;;
58528;SDS011;44322;52.968;5.816;2023-04-06T09:11:17;26.35;;;16.38;;
58528;SDS011;44322;52.968;5.816;2023-04-06T09:13:46;23.42;;;15.93;;
58528;SDS011;44322;52.968;5.816;2023-04-06T09:16:16;24.98;;;16.50;;
58528;SDS011;44322;52.968;5.816;2023-04-06T09:18:43;25.17;;;16.80;;
58528;SDS011;44322;52.968;5.816;2023-04-06T09:21:09;24.38;;;15.82;;
58528;SDS011;44322;52.968;5.816;2023-04-06T09:23:35;25.33;;;16.73;;
58528;SDS011;44322;52.968;5.816;2023-04-06T09:26:08;28.23;;;16.88;;
58528;SDS011;44322;52.968;5.816;2023-04-06T09:28:49;25.70;;;15.88;;
58528;SDS011;44322;52.968;5.816;2023-04-06T09:31:24;28.55;;;17.45;;
58528;SDS011;44322;52.968;5.816;2023-04-06T09:33:51;26.98;;;17.48;;
58528;SDS011;44322;52.968;5.816;2023-04-06T09:36:17;27.50;;;16.00;;
58528;SDS011;44322;52.968;5.816;2023-04-06T09:38:57;27.17;;;17.23;;
58528;SDS011;44322;52.968;5.816;2023-04-06T09:41:27;26.92;;;16.88;;
58528;SDS011;44322;52.968;5.816;2023-04-06T09:44:02;26.60;;;17.00;;
58528;SDS011;44322;52.968;5.816;2023-04-06T09:46:28;26.33;;;18.45;;
58528;SDS011;44322;52.968;5.816;2023-04-06T09:48:57;25.50;;;17.42;;
58528;SDS011;44322;52.968;5.816;2023-04-06T09:51:23;27.70;;;17.27;;
58528;SDS011;44322;52.968;5.816;2023-04-06T09:53:52;28.08;;;18.10;;
58528;SDS011;44322;52.968;5.816;2023-04-06T09:56:20;27.73;;;17.52;;
58528;SDS011;44322;52.968;5.816;2023-04-06T09:58:50;26.65;;;17.67;;
58528;SDS011;44322;52.968;5.816;2023-04-06T10:01:19;28.70;;;17.05;;
58528;SDS011;44322;52.968;5.816;2023-04-06T10:03:54;27.63;;;18.23;;
58528;SDS011;44322;52.968;5.816;2023-04-06T10:06:25;27.23;;;17.85;;
58528;SDS011;44322;52.968;5.816;2023-04-06T10:11:19;27.00;;;16.93;;
58528;SDS011;44322;52.968;5.816;2023-04-06T10:13:46;24.50;;;15.93;;
58528;SDS011;44322;52.968;5.816;2023-04-06T10:16:14;27.85;;;17.17;;
58528;SDS011;44322;52.968;5.816;2023-04-06T10:18:41;26.55;;;16.23;;
58528;SDS011;44322;52.968;5.816;2023-04-06T10:21:14;26.88;;;17.38;;
58528;SDS011;44322;52.968;5.816;2023-04-06T10:26:16;26.10;;;16.83;;
58528;SDS011;44322;52.968;5.816;2023-04-06T10:28:46;25.58;;;16.02;;
58528;SDS011;44322;52.968;5.816;2023-04-06T10:31:13;22.45;;;15.48;;
58528;SDS011;44322;52.968;5.816;2023-04-06T10:33:39;25.33;;;16.73;;
58528;SDS011;44322;52.968;5.816;2023-04-06T10:36:24;27.50;;;17.45;;
58528;SDS011;44322;52.968;5.816;2023-04-06T10:39:00;24.75;;;15.65;;
58528;SDS011;44322;52.968;5.816;2023-04-06T10:41:46;28.52;;;17.08;;
58528;SDS011;44322;52.968;5.816;2023-04-06T10:44:20;25.85;;;16.85;;
58528;SDS011;44322;52.968;5.816;2023-04-06T10:46:56;26.55;;;17.10;;
58528;SDS011;44322;52.968;5.816;2023-04-06T10:49:25;27.75;;;15.85;;
58528;SDS011;44322;52.968;5.816;2023-04-06T10:51:52;25.20;;;17.55;;
58528;SDS011;44322;52.968;5.816;2023-04-06T10:54:19;31.70;;;17.95;;
58528;SDS011;44322;52.968;5.816;2023-04-06T10:56:47;25.40;;;16.67;;
58528;SDS011;44322;52.968;5.816;2023-04-06T10:59:13;27.60;;;17.20;;
58528;SDS011;44322;52.968;5.816;2023-04-06T11:01:44;28.63;;;17.38;;
58528;SDS011;44322;52.968;5.816;2023-04-06T11:04:11;28.63;;;17.85;;
58528;SDS011;44322;52.968;5.816;2023-04-06T11:06:41;28.83;;;17.58;;
58528;SDS011;44322;52.968;5.816;2023-04-06T11:09:06;31.67;;;18.60;;
58528;SDS011;44322;52.968;5.816;2023-04-06T11:11:34;26.30;;;16.95;;
58528;SDS011;44322;52.968;5.816;2023-04-06T11:14:03;29.35;;;18.02;;
58528;SDS011;44322;52.968;5.816;2023-04-06T11:16:30;30.45;;;18.13;;
58528;SDS011;44322;52.968;5.816;2023-04-06T11:19:00;27.42;;;17.23;;
58528;SDS011;44322;52.968;5.816;2023-04-06T11:26:36;27.48;;;17.33;;
58528;SDS011;44322;52.968;5.816;2023-04-06T11:29:05;28.40;;;17.73;;
58528;SDS011;44322;52.968;5.816;2023-04-06T11:31:31;28.50;;;17.55;;
58528;SDS011;44322;52.968;5.816;2023-04-06T11:33:57;30.40;;;18.02;;
58528;SDS011;44322;52.968;5.816;2023-04-06T11:36:22;26.33;;;16.83;;
58528;SDS011;44322;52.968;5.816;2023-04-06T11:38:48;32.85;;;18.58;;
58528;SDS011;44322;52.968;5.816;2023-04-06T11:41:14;29.95;;;18.17;;
58528;SDS011;44322;52.968;5.816;2023-04-06T11:43:45;30.20;;;17.65;;
58528;SDS011;44322;52.968;5.816;2023-04-06T11:46:16;32.00;;;19.30;;
58528;SDS011;44322;52.968;5.816;2023-04-06T11:48:44;36.45;;;19.88;;
58528;SDS011;44322;52.968;5.816;2023-04-06T11:51:11;34.22;;;19.48;;
58528;SDS011;44322;52.968;5.816;2023-04-06T11:53:45;33.17;;;19.23;;
58528;SDS011;44322;52.968;5.816;2023-04-06T11:56:21;28.83;;;16.73;;
58528;SDS011;44322;52.968;5.816;2023-04-06T11:58:48;29.83;;;18.05;;
58528;SDS011;44322;52.968;5.816;2023-04-06T12:01:13;25.70;;;15.50;;
58528;SDS011;44322;52.968;5.816;2023-04-06T12:03:39;24.73;;;14.93;;
58528;SDS011;44322;52.968;5.816;2023-04-06T12:06:05;18.33;;;12.07;;
58528;SDS011;44322;52.968;5.816;2023-04-06T12:08:30;15.93;;;9.32;;
58528;SDS011;44322;52.968;5.816;2023-04-06T12:10:56;10.73;;;7.15;;
58528;SDS011;44322;52.968;5.816;2023-04-06T12:13:21;14.40;;;8.38;;
58528;SDS011;44322;52.968;5.816;2023-04-06T12:15:47;25.75;;;13.40;;
58528;SDS011;44322;52.968;5.816;2023-04-06T12:18:13;28.73;;;12.40;;
58528;SDS011;44322;52.968;5.816;2023-04-06T12:20:39;20.88;;;11.82;;
58528;SDS011;44322;52.968;5.816;2023-04-06T12:23:04;17.27;;;10.30;;
58528;SDS011;44322;52.968;5.816;2023-04-06T12:25:30;15.52;;;10.35;;
58528;SDS011;44322;52.968;5.816;2023-04-06T12:27:56;13.43;;;9.85;;
58528;SDS011;44322;52.968;5.816;2023-04-06T12:30:21;14.40;;;9.32;;
58528;SDS011;44322;52.968;5.816;2023-04-06T12:32:47;14.30;;;9.93;;
58528;SDS011;44322;52.968;5.816;2023-04-06T12:35:13;15.50;;;10.40;;
58528;SDS011;44322;52.968;5.816;2023-04-06T12:37:41;18.75;;;11.45;;
58528;SDS011;44322;52.968;5.816;2023-04-06T12:40:08;15.57;;;10.73;;
58528;SDS011;44322;52.968;5.816;2023-04-06T12:42:36;15.73;;;10.40;;
58528;SDS011;44322;52.968;5.816;2023-04-06T12:45:01;14.50;;;9.27;;
58528;SDS011;44322;52.968;5.816;2023-04-06T12:47:27;15.52;;;10.77;;
58528;SDS011;44322;52.968;5.816;2023-04-06T12:49:54;18.98;;;11.88;;
58528;SDS011;44322;52.968;5.816;2023-04-06T12:52:20;19.02;;;12.45;;
58528;SDS011;44322;52.968;5.816;2023-04-06T12:54:46;20.10;;;12.82;;
58528;SDS011;44322;52.968;5.816;2023-04-06T12:57:12;21.27;;;13.02;;
58528;SDS011;44322;52.968;5.816;2023-04-06T12:59:38;23.25;;;13.27;;
58528;SDS011;44322;52.968;5.816;2023-04-06T13:02:04;20.77;;;13.48;;
58528;SDS011;44322;52.968;5.816;2023-04-06T13:04:30;20.55;;;12.98;;
58528;SDS011;44322;52.968;5.816;2023-04-06T13:06:56;21.10;;;14.25;;
58528;SDS011;44322;52.968;5.816;2023-04-06T13:09:21;18.83;;;12.30;;
58528;SDS011;44322;52.968;5.816;2023-04-06T13:11:47;20.88;;;13.05;;
58528;SDS011;44322;52.968;5.816;2023-04-06T13:14:13;21.25;;;13.63;;
58528;SDS011;44322;52.968;5.816;2023-04-06T13:16:39;18.10;;;13.13;;
58528;SDS011;44322;52.968;5.816;2023-04-06T13:19:04;21.60;;;13.40;;
58528;SDS011;44322;52.968;5.816;2023-04-06T13:21:30;19.67;;;13.70;;
58528;SDS011;44322;52.968;5.816;2023-04-06T13:23:56;18.17;;;13.18;;
58528;SDS011;44322;52.968;5.816;2023-04-06T13:26:21;20.98;;;13.55;;
58528;SDS011;44322;52.968;5.816;2023-04-06T13:28:47;19.17;;;13.10;;
58528;SDS011;44322;52.968;5.816;2023-04-06T13:31:13;22.85;;;14.23;;
58528;SDS011;44322;52.968;5.816;2023-04-06T13:33:39;22.90;;;14.73;;
58528;SDS011;44322;52.968;5.816;2023-04-06T13:36:06;19.33;;;13.67;;
58528;SDS011;44322;52.968;5.816;2023-04-06T13:38:33;21.23;;;14.20;;
58528;SDS011;44322;52.968;5.816;2023-04-06T13:40:59;22.23;;;15.18;;
58528;SDS011;44322;52.968;5.816;2023-04-06T13:43:25;21.92;;;14.93;;
58528;SDS011;44322;52.968;5.816;2023-04-06T13:45:52;25.02;;;15.88;;
58528;SDS011;44322;52.968;5.816;2023-04-06T13:48:23;25.23;;;16.13;;
58528;SDS011;44322;52.968;5.816;2023-04-06T13:50:50;23.92;;;16.25;;
58528;SDS011;44322;52.968;5.816;2023-04-06T13:53:24;26.65;;;16.85;;
58528;SDS011;44322;52.968;5.816;2023-04-06T13:55:53;25.60;;;17.40;;
58528;SDS011;44322;52.968;5.816;2023-04-06T13:58:20;24.00;;;16.70;;
58528;SDS011;44322;52.968;5.816;2023-04-06T14:00:46;25.67;;;17.33;;
58528;SDS011;44322;52.968;5.816;2023-04-06T14:03:11;27.17;;;18.08;;
58528;SDS011;44322;52.968;5.816;2023-04-06T14:05:41;26.23;;;18.55;;
58528;SDS011;44322;52.968;5.816;2023-04-06T14:11:00;27.35;;;18.80;;
58528;SDS011;44322;52.968;5.816;2023-04-06T14:13:26;27.52;;;18.48;;
58528;SDS011;44322;52.968;5.816;2023-04-06T14:15:53;26.65;;;18.05;;
58528;SDS011;44322;52.968;5.816;2023-04-06T14:18:27;26.67;;;18.15;;
58528;SDS011;44322;52.968;5.816;2023-04-06T14:21:30;28.00;;;18.17;;
58528;SDS011;44322;52.968;5.816;2023-04-06T14:24:09;28.30;;;18.83;;
58528;SDS011;44322;52.968;5.816;2023-04-06T14:26:35;29.40;;;18.85;;
58528;SDS011;44322;52.968;5.816;2023-04-06T14:29:04;26.35;;;18.13;;
58528;SDS011;44322;52.968;5.816;2023-04-06T14:31:31;25.40;;;17.10;;
58528;SDS011;44322;52.968;5.816;2023-04-06T14:34:07;24.27;;;15.30;;
58528;SDS011;44322;52.968;5.816;2023-04-06T14:36:33;22.05;;;15.32;;
58528;SDS011;44322;52.968;5.816;2023-04-06T14:39:03;19.83;;;14.10;;
58528;SDS011;44322;52.968;5.816;2023-04-06T14:41:30;18.70;;;13.00;;
58528;SDS011;44322;52.968;5.816;2023-04-06T14:43:56;18.27;;;11.95;;
58528;SDS011;44322;52.968;5.816;2023-04-06T14:46:25;17.30;;;12.65;;